createdAt,value
2023-04-01T00:02:14.787Z,6.80
2023-04-01T00:05:21.997Z,3.03
2023-04-01T00:08:39.690Z,2.63
2023-04-01T00:11:44.883Z,2.05
2023-04-01T00:14:49.276Z,2.40
2023-04-01T00:17:52.738Z,4.50
2023-04-01T00:20:55.671Z,3.90
2023-04-01T00:23:59.115Z,3.40
2023-04-01T00:27:14.847Z,5.43
2023-04-01T00:30:26.841Z,3.63
2023-04-01T00:33:29.036Z,3.15
2023-04-01T00:36:39.875Z,3.17
2023-04-01T00:39:41.954Z,4.68
2023-04-01T00:42:46.167Z,5.85
2023-04-01T00:45:50.111Z,1.80
2023-04-01T00:48:56.563Z,2.78
2023-04-01T00:52:02.924Z,2.65
2023-04-01T00:55:07.840Z,4.18
2023-04-01T00:58:15.964Z,3.03
2023-04-01T01:01:18.912Z,4.38
2023-04-01T01:04:29.120Z,2.53
2023-04-01T01:07:53.186Z,2.95
2023-04-01T01:10:55.648Z,2.67
2023-04-01T01:14:13.715Z,6.57
2023-04-01T01:17:21.659Z,2.55
2023-04-01T01:20:40.941Z,7.53
2023-04-01T01:24:04.997Z,1.63
2023-04-01T01:27:11.859Z,1.92
2023-04-01T01:30:26.717Z,1.88
2023-04-01T01:33:48.953Z,2.65
2023-04-01T01:36:57.582Z,10.35
2023-04-01T01:40:06.321Z,3.17
2023-04-01T01:43:14.398Z,7.45
2023-04-01T01:46:22.237Z,8.30
2023-04-01T01:49:26.274Z,7.65
2023-04-01T01:52:30.012Z,9.40
2023-04-01T01:55:37.666Z,19.05
2023-04-01T01:58:49.361Z,18.77
2023-04-01T02:01:57.831Z,22.67
2023-04-01T02:05:02.953Z,23.48
2023-04-01T02:08:17.567Z,29.48
2023-04-01T02:11:28.714Z,28.17
2023-04-01T02:14:55.982Z,33.38
2023-04-01T02:17:59.190Z,29.33
2023-04-01T02:21:02.352Z,32.63
2023-04-01T02:24:09.305Z,31.05
2023-04-01T02:27:12.348Z,32.72
2023-04-01T02:30:17.764Z,35.85
2023-04-01T02:33:22.028Z,25.10
2023-04-01T02:36:26.554Z,34.33
2023-04-01T02:39:28.697Z,25.33
2023-04-01T02:42:31.820Z,26.45
2023-04-01T02:45:34.775Z,28.05
2023-04-01T02:48:38.274Z,34.30
2023-04-01T02:51:40.566Z,35.90
2023-04-01T02:54:43.603Z,30.38
2023-04-01T02:57:46.004Z,19.02
2023-04-01T03:00:49.017Z,21.85
2023-04-01T03:03:51.253Z,17.08
2023-04-01T03:06:53.953Z,15.63
2023-04-01T03:09:56.261Z,11.70
2023-04-01T03:12:59.599Z,11.02
2023-04-01T03:16:02.582Z,9.60
2023-04-01T03:19:36.624Z,9.98
2023-04-01T03:22:44.927Z,9.73
2023-04-01T03:25:47.028Z,11.48
2023-04-01T03:28:51.820Z,11.65
2023-04-01T03:31:54.031Z,11.10
2023-04-01T03:34:56.811Z,10.23
2023-04-01T03:37:59.772Z,11.90
2023-04-01T03:41:03.711Z,10.67
2023-04-01T03:44:07.789Z,11.00
2023-04-01T03:47:10.791Z,13.13
2023-04-01T03:50:13.607Z,12.00
2023-04-01T03:53:16.762Z,12.07
2023-04-01T03:56:21.540Z,15.25
2023-04-01T03:59:24.469Z,14.60
2023-04-01T04:05:32.589Z,16.77
2023-04-01T04:08:36.108Z,17.63
2023-04-01T04:11:38.956Z,18.38
2023-04-01T04:14:41.451Z,17.95
2023-04-01T04:17:46.494Z,16.50
2023-04-01T04:20:52.279Z,16.27
2023-04-01T04:23:56.230Z,16.75
2023-04-01T04:26:58.616Z,16.48
2023-04-01T04:30:01.805Z,15.90
2023-04-01T04:33:05.223Z,17.77
2023-04-01T04:36:09.496Z,15.50
2023-04-01T04:39:11.859Z,16.77
2023-04-01T04:42:16.177Z,15.05
2023-04-01T04:45:18.522Z,16.13
2023-04-01T04:48:29.814Z,16.30
2023-04-01T04:51:34.985Z,18.10
2023-04-01T04:54:38.233Z,18.38
2023-04-01T04:57:43.868Z,15.82
2023-04-01T05:00:47.397Z,14.60
2023-04-01T05:03:57.070Z,15.57
2023-04-01T05:07:00.222Z,16.92
2023-04-01T05:10:04.465Z,19.08
2023-04-01T05:13:08.417Z,19.15
2023-04-01T05:16:14.669Z,18.98
2023-04-01T05:19:22.853Z,25.17
2023-04-01T05:22:25.507Z,21.15
2023-04-01T05:28:36.754Z,25.02
2023-04-01T05:31:39.331Z,25.05
2023-04-01T05:34:41.967Z,31.20
2023-04-01T05:37:50.801Z,39.08
2023-04-01T05:41:02.153Z,44.65
2023-04-01T05:44:14.198Z,46.25
2023-04-01T05:47:20.151Z,40.35
2023-04-01T05:50:23.981Z,46.38
2023-04-01T05:53:27.041Z,40.90
2023-04-01T05:56:42.669Z,42.63
2023-04-01T05:59:51.903Z,44.83
2023-04-01T06:02:54.810Z,39.45
2023-04-01T06:05:57.266Z,38.67
2023-04-01T06:09:28.317Z,32.55
2023-04-01T06:13:01.352Z,37.73
2023-04-01T06:16:18.083Z,31.80
2023-04-01T06:19:52.760Z,37.80
2023-04-01T06:23:56.581Z,42.53
2023-04-01T06:27:20.147Z,32.88
2023-04-01T06:31:19.023Z,36.28
2023-04-01T06:34:46.019Z,36.35
2023-04-01T06:38:07.040Z,41.63
2023-04-01T06:41:49.179Z,38.90
2023-04-01T06:44:58.136Z,46.90
2023-04-01T06:48:46.570Z,50.42
2023-04-01T06:52:19.945Z,47.03
2023-04-01T06:56:12.203Z,50.47
2023-04-01T06:59:38.633Z,54.47
2023-04-01T07:03:00.203Z,57.53
2023-04-01T07:06:10.398Z,46.53
2023-04-01T07:09:31.453Z,40.67
2023-04-01T07:13:17.220Z,45.95
2023-04-01T07:16:30.155Z,42.63
2023-04-01T07:20:04.841Z,39.88
2023-04-01T07:23:16.742Z,45.63
2023-04-01T07:26:29.844Z,41.55
2023-04-01T07:29:46.584Z,42.08
2023-04-01T07:36:21.570Z,38.35
2023-04-01T07:39:44.522Z,36.38
2023-04-01T07:43:23.056Z,35.95
2023-04-01T07:46:53.927Z,33.72
2023-04-01T07:50:27.982Z,33.40
2023-04-01T07:53:53.955Z,30.27
2023-04-01T07:57:13.939Z,37.30
2023-04-01T08:00:52.787Z,34.50
2023-04-01T08:04:18.999Z,27.83
2023-04-01T08:07:33.113Z,26.35
2023-04-01T08:11:33.930Z,28.15
2023-04-01T08:15:22.469Z,26.75
2023-04-01T08:18:57.770Z,33.40
2023-04-01T08:22:06.346Z,26.30
2023-04-01T08:25:32.590Z,23.70
2023-04-01T08:29:04.249Z,16.35
2023-04-01T08:32:23.531Z,20.85
2023-04-01T08:35:56.936Z,24.10
2023-04-01T08:39:19.918Z,20.00
2023-04-01T08:43:31.944Z,21.77
2023-04-01T08:47:16.000Z,20.67
2023-04-01T08:50:50.890Z,22.77
2023-04-01T08:54:10.197Z,21.88
2023-04-01T08:57:59.199Z,22.13
2023-04-01T09:01:53.686Z,20.65
2023-04-01T09:05:43.506Z,23.88
2023-04-01T09:13:00.929Z,21.98
2023-04-01T09:16:23.575Z,21.80
2023-04-01T09:19:55.613Z,23.60
2023-04-01T09:23:08.951Z,25.55
2023-04-01T09:26:28.518Z,23.52
2023-04-01T09:30:02.159Z,29.30
2023-04-01T09:33:29.029Z,24.05
2023-04-01T09:36:37.586Z,18.80
2023-04-01T09:39:58.653Z,24.10
2023-04-01T09:43:26.813Z,21.92
2023-04-01T09:47:02.697Z,20.50
2023-04-01T09:50:07.983Z,17.70
2023-04-01T09:53:49.387Z,21.08
2023-04-01T09:56:54.895Z,21.35
2023-04-01T10:00:21.560Z,20.98
2023-04-01T10:03:51.931Z,17.00
2023-04-01T10:07:47.006Z,15.82
2023-04-01T10:11:23.640Z,16.30
2023-04-01T10:14:47.386Z,16.95
2023-04-01T10:18:10.459Z,17.65
2023-04-01T10:25:26.122Z,16.98
2023-04-01T10:29:27.358Z,16.02
2023-04-01T10:33:02.174Z,14.88
2023-04-01T10:36:14.690Z,15.68
2023-04-01T10:39:41.894Z,11.52
2023-04-01T10:43:52.746Z,10.32
2023-04-01T10:47:20.347Z,9.63
2023-04-01T10:51:04.720Z,9.32
2023-04-01T10:54:37.015Z,8.13
2023-04-01T10:59:17.582Z,11.45
2023-04-01T11:03:16.075Z,11.38
2023-04-01T11:07:10.035Z,11.27
2023-04-01T11:10:52.398Z,12.95
2023-04-01T11:14:46.238Z,14.02
2023-04-01T11:18:14.303Z,14.30
2023-04-01T11:21:27.492Z,13.75
2023-04-01T11:24:57.208Z,16.40
2023-04-01T11:29:10.496Z,18.38
2023-04-01T11:32:34.915Z,19.88
2023-04-01T11:35:59.999Z,16.77
2023-04-01T11:39:38.438Z,17.80
2023-04-01T11:43:50.126Z,21.48
2023-04-01T11:47:47.923Z,17.23
2023-04-01T11:50:59.236Z,19.45
2023-04-01T11:54:33.699Z,15.15
2023-04-01T11:58:13.692Z,15.68
2023-04-01T12:01:43.698Z,15.15
2023-04-01T12:04:59.801Z,17.95
2023-04-01T12:08:39.713Z,18.45
2023-04-01T12:12:24.286Z,15.27
2023-04-01T12:15:55.500Z,12.05
2023-04-01T12:19:09.423Z,11.15
2023-04-01T12:22:13.853Z,10.52
2023-04-01T12:25:28.640Z,9.68
2023-04-01T12:32:24.176Z,10.43
2023-04-01T12:36:17.658Z,14.25
2023-04-01T12:45:35.925Z,7.05
2023-04-01T12:49:17.287Z,11.68
2023-04-01T12:52:25.445Z,9.50
2023-04-01T12:55:42.835Z,10.00
2023-04-01T12:59:26.118Z,10.80
2023-04-01T13:02:28.828Z,10.57
2023-04-01T13:05:56.553Z,9.48
2023-04-01T13:09:24.575Z,11.80
2023-04-01T13:12:46.068Z,10.77
2023-04-01T13:16:20.284Z,6.97
2023-04-01T13:20:06.946Z,10.25
2023-04-01T13:23:22.054Z,9.30
2023-04-01T13:26:44.542Z,7.50
2023-04-01T13:30:23.414Z,8.95
2023-04-01T13:34:03.255Z,8.60
2023-04-01T13:37:31.129Z,11.05
2023-04-01T13:41:15.263Z,11.52
2023-04-01T13:44:29.337Z,11.57
2023-04-01T13:47:39.398Z,8.57
2023-04-01T13:51:05.567Z,12.60
2023-04-01T13:54:16.749Z,9.07
2023-04-01T13:57:51.621Z,8.88
2023-04-01T14:01:02.297Z,11.00
2023-04-01T14:04:23.604Z,8.93
2023-04-01T14:08:01.132Z,15.93
2023-04-01T14:11:11.639Z,14.00
2023-04-01T14:14:54.070Z,15.48
2023-04-01T14:18:32.157Z,14.52
2023-04-01T14:21:48.175Z,9.38
2023-04-01T14:25:12.694Z,11.85
2023-04-01T14:28:35.235Z,13.70
2023-04-01T14:32:02.744Z,10.15
2023-04-01T14:35:30.346Z,10.15
2023-04-01T14:38:48.409Z,13.80
2023-04-01T14:42:21.550Z,10.05
2023-04-01T14:45:53.354Z,4.97
2023-04-01T14:49:28.440Z,10.82
2023-04-01T14:52:39.112Z,12.60
2023-04-01T14:55:44.213Z,7.65
2023-04-01T14:58:51.518Z,7.40
2023-04-01T15:02:12.544Z,5.95
2023-04-01T15:05:39.236Z,4.40
2023-04-01T15:08:59.978Z,8.20
2023-04-01T15:12:05.652Z,3.35
2023-04-01T15:15:37.363Z,9.10
2023-04-01T15:18:40.792Z,4.53
2023-04-01T15:22:21.761Z,5.22
2023-04-01T15:25:53.386Z,4.45
2023-04-01T15:29:28.478Z,6.78
2023-04-01T15:32:42.377Z,8.25
2023-04-01T15:36:09.189Z,5.03
2023-04-01T15:39:25.906Z,5.05
2023-04-01T15:42:47.260Z,5.15
2023-04-01T15:45:58.836Z,5.60
2023-04-01T15:49:39.365Z,7.70
2023-04-01T15:52:51.550Z,5.85
2023-04-01T15:55:59.437Z,4.40
2023-04-01T15:59:15.807Z,6.25
2023-04-01T16:02:54.197Z,5.43
2023-04-01T16:06:16.447Z,4.30
2023-04-01T16:09:43.475Z,5.45
2023-04-01T16:13:08.017Z,3.80
2023-04-01T16:16:29.052Z,5.40
2023-04-01T16:19:49.640Z,5.53
2023-04-01T16:23:12.113Z,4.80
2023-04-01T16:26:29.121Z,4.97
2023-04-01T16:29:46.709Z,5.38
2023-04-01T16:32:58.166Z,3.88
2023-04-01T16:36:12.541Z,4.03
2023-04-01T16:39:42.111Z,2.83
2023-04-01T16:43:18.751Z,3.00
2023-04-01T16:46:27.660Z,3.22
2023-04-01T16:49:48.758Z,2.30
2023-04-01T16:53:20.535Z,1.95
2023-04-01T16:56:23.107Z,2.88
2023-04-01T17:00:13.619Z,3.45
2023-04-01T17:03:30.910Z,3.63
2023-04-01T17:07:03.825Z,2.03
2023-04-01T17:10:33.932Z,2.22
2023-04-01T17:13:44.564Z,1.83
2023-04-01T17:16:49.982Z,1.40
2023-04-01T17:20:14.215Z,1.55
2023-04-01T17:23:35.506Z,1.95
2023-04-01T17:26:53.224Z,3.47
2023-04-01T17:30:09.958Z,5.00
2023-04-01T17:33:17.066Z,3.13
2023-04-01T17:36:46.337Z,2.75
2023-04-01T17:40:10.174Z,5.35
2023-04-01T17:43:37.030Z,2.17
2023-04-01T17:46:48.434Z,3.55
2023-04-01T17:50:20.061Z,2.03
2023-04-01T17:53:56.956Z,5.47
2023-04-01T17:57:08.390Z,3.28
2023-04-01T18:00:32.459Z,2.08
2023-04-01T18:04:09.791Z,3.97
2023-04-01T18:08:01.831Z,2.17
2023-04-01T18:11:23.584Z,1.45
2023-04-01T18:14:46.722Z,2.85
2023-04-01T18:18:18.888Z,2.22
2023-04-01T18:21:51.934Z,2.53
2023-04-01T18:25:06.376Z,2.67
2023-04-01T18:28:19.831Z,3.05
2023-04-01T18:31:28.194Z,4.03
2023-04-01T18:34:39.801Z,3.85
2023-04-01T18:38:02.166Z,4.40
2023-04-01T18:41:35.870Z,7.30
2023-04-01T18:44:51.671Z,2.75
2023-04-01T18:48:32.273Z,5.60
2023-04-01T18:51:57.060Z,5.45
2023-04-01T18:55:06.702Z,2.45
2023-04-01T18:58:20.025Z,5.50
2023-04-01T19:01:29.548Z,7.40
2023-04-01T19:04:42.275Z,9.90
2023-04-01T19:07:49.194Z,4.95
2023-04-01T19:11:03.983Z,9.30
2023-04-01T19:14:16.834Z,4.95
2023-04-01T19:17:21.867Z,5.43
2023-04-01T19:20:43.666Z,4.20
2023-04-01T19:24:04.589Z,14.07
2023-04-01T19:27:07.167Z,14.88
2023-04-01T19:30:22.655Z,8.40
2023-04-01T19:33:37.571Z,5.82
2023-04-01T19:36:40.882Z,4.68
2023-04-01T19:39:52.708Z,6.82
2023-04-01T19:43:17.197Z,7.57
2023-04-01T19:46:42.653Z,5.63
2023-04-01T19:50:03.235Z,8.48
2023-04-01T19:53:36.697Z,8.05
2023-04-01T19:57:00.069Z,12.60
2023-04-01T20:00:31.717Z,8.32
2023-04-01T20:03:43.038Z,4.10
2023-04-01T20:07:21.164Z,3.67
2023-04-01T20:10:44.455Z,3.33
2023-04-01T20:14:09.100Z,2.85
2023-04-01T20:17:26.543Z,3.67
2023-04-01T20:20:31.890Z,5.38
2023-04-01T20:23:51.828Z,5.97
2023-04-01T20:27:06.196Z,2.78
2023-04-01T20:30:37.930Z,1.87
2023-04-01T20:34:18.341Z,4.20
2023-04-01T20:38:03.138Z,2.97
2023-04-01T20:41:11.724Z,2.90
2023-04-01T20:44:16.087Z,5.72
2023-04-01T20:47:33.480Z,2.95
2023-04-01T20:50:39.168Z,7.22
2023-04-01T20:54:14.706Z,6.00
2023-04-01T20:57:24.984Z,6.18
2023-04-01T21:00:54.013Z,2.72
2023-04-01T21:04:05.385Z,2.75
2023-04-01T21:07:17.097Z,2.60
2023-04-01T21:10:46.801Z,4.78
2023-04-01T21:14:08.471Z,4.90
2023-04-01T21:17:29.111Z,2.67
2023-04-01T21:20:48.557Z,7.70
2023-04-01T21:24:12.300Z,3.72
2023-04-01T21:27:33.798Z,5.72
2023-04-01T21:31:05.284Z,8.02
2023-04-01T21:34:14.740Z,4.28
2023-04-01T21:37:38.756Z,5.47
2023-04-01T21:40:54.417Z,4.80
2023-04-01T21:44:31.333Z,5.47
2023-04-01T21:48:04.858Z,5.65
2023-04-01T21:51:34.643Z,2.53
2023-04-01T21:55:11.852Z,5.35
2023-04-01T21:58:51.224Z,3.65
2023-04-01T22:01:59.583Z,7.20
2023-04-01T22:05:23.508Z,4.75
2023-04-01T22:08:42.211Z,5.65
2023-04-01T22:12:07.593Z,8.65
2023-04-01T22:15:18.509Z,7.43
2023-04-01T22:18:41.614Z,7.32
2023-04-01T22:22:18.130Z,7.13
2023-04-01T22:25:30.379Z,13.05
2023-04-01T22:28:47.094Z,8.25
2023-04-01T22:31:56.724Z,10.07
2023-04-01T22:35:15.335Z,6.63
2023-04-01T22:38:43.473Z,7.35
2023-04-01T22:42:04.949Z,10.73
2023-04-01T22:45:41.929Z,6.63
2023-04-01T22:48:53.307Z,15.35
2023-04-01T22:52:25.870Z,9.00
2023-04-01T22:55:36.657Z,10.60
2023-04-01T22:58:47.696Z,9.27
2023-04-01T23:02:16.658Z,9.40
2023-04-01T23:05:23.006Z,7.35
2023-04-01T23:09:03.275Z,7.50
2023-04-01T23:12:11.658Z,7.50
2023-04-01T23:15:16.695Z,8.48
2023-04-01T23:18:37.678Z,8.15
2023-04-01T23:21:53.462Z,8.68
2023-04-01T23:25:14.275Z,8.15
2023-04-01T23:28:19.706Z,8.85
2023-04-01T23:31:48.204Z,7.07
2023-04-01T23:34:53.558Z,6.53
2023-04-01T23:37:56.498Z,9.20
2023-04-01T23:40:59.407Z,7.43
2023-04-01T23:44:03.600Z,7.35
2023-04-01T23:47:10.469Z,6.35
2023-04-01T23:50:25.438Z,5.65
2023-04-01T23:53:34.098Z,5.38
2023-04-01T23:56:43.832Z,10.82
